createdAt,value
2022-09-03T00:00:10.627Z,16.13
2022-09-03T00:05:15.197Z,16.26
2022-09-03T00:10:31.646Z,16.14
2022-09-03T00:15:34.439Z,16.08
2022-09-03T00:20:42.836Z,16.07
2022-09-03T00:25:56.236Z,16.03
2022-09-03T00:31:39.218Z,16.07
2022-09-03T00:36:42.973Z,15.95
2022-09-03T00:41:50.252Z,15.90
2022-09-03T00:47:30.173Z,15.82
2022-09-03T00:52:49.959Z,15.89
2022-09-03T00:58:10.118Z,16.01
2022-09-03T01:03:42.858Z,15.93
2022-09-03T01:08:47.444Z,15.83
2022-09-03T01:13:58.740Z,15.69
2022-09-03T01:19:09.810Z,15.65
2022-09-03T01:24:45.383Z,15.81
2022-09-03T01:30:30.476Z,15.85
2022-09-03T01:35:43.807Z,15.64
2022-09-03T01:41:30.014Z,15.61
2022-09-03T01:46:40.049Z,15.60
2022-09-03T01:51:41.858Z,15.38
2022-09-03T01:57:05.007Z,15.48
2022-09-03T02:02:21.146Z,15.40
2022-09-03T02:07:24.073Z,15.20
2022-09-03T02:12:26.005Z,15.21
2022-09-03T02:17:27.575Z,14.99
2022-09-03T02:22:29.183Z,15.00
2022-09-03T02:27:31.595Z,15.09
2022-09-03T02:32:33.357Z,15.24
2022-09-03T02:37:35.005Z,15.12
2022-09-03T02:42:36.853Z,15.04
2022-09-03T02:47:39.773Z,15.06
2022-09-03T02:52:41.344Z,14.87
2022-09-03T02:57:43.860Z,14.75
2022-09-03T03:02:46.875Z,14.75
2022-09-03T03:07:48.611Z,14.75
2022-09-03T03:12:50.670Z,14.77
2022-09-03T03:17:52.259Z,14.64
2022-09-03T03:22:53.793Z,14.70
2022-09-03T03:27:57.005Z,14.56
2022-09-03T03:32:58.700Z,14.47
2022-09-03T03:38:00.339Z,14.39
2022-09-03T03:43:01.958Z,14.51
2022-09-03T03:48:03.724Z,14.47
2022-09-03T03:53:05.322Z,14.43
2022-09-03T03:58:06.861Z,14.43
2022-09-03T04:03:08.407Z,14.22
2022-09-03T04:08:09.965Z,14.13
2022-09-03T04:13:11.668Z,14.15
2022-09-03T04:18:13.348Z,13.83
2022-09-03T04:23:14.969Z,13.94
2022-09-03T04:28:16.605Z,13.91
2022-09-03T04:33:18.206Z,13.94
2022-09-03T04:38:19.836Z,13.82
2022-09-03T04:43:21.449Z,13.72
2022-09-03T04:48:23.091Z,13.82
2022-09-03T04:53:24.799Z,13.82
2022-09-03T04:58:26.595Z,13.88
2022-09-03T05:03:29.164Z,14.04
2022-09-03T05:08:30.753Z,13.99
2022-09-03T05:13:33.743Z,14.05
2022-09-03T05:18:38.743Z,14.17
2022-09-03T05:23:42.663Z,14.28
2022-09-03T05:28:44.940Z,14.28
2022-09-03T05:33:50.337Z,14.44
2022-09-03T05:38:54.273Z,14.65
2022-09-03T05:43:58.682Z,14.86
2022-09-03T05:49:07.536Z,14.90
2022-09-03T05:54:14.431Z,15.22
2022-09-03T05:59:16.262Z,15.21
2022-09-03T06:04:18.304Z,15.53
2022-09-03T06:09:21.154Z,15.59
2022-09-03T06:14:25.266Z,15.72
2022-09-03T06:19:27.347Z,15.73
2022-09-03T06:24:29.729Z,15.95
2022-09-03T06:29:31.368Z,15.95
2022-09-03T06:34:33.059Z,16.15
2022-09-03T06:39:34.734Z,16.22
2022-09-03T06:44:36.291Z,16.37
2022-09-03T06:49:38.757Z,16.41
2022-09-03T06:54:40.774Z,16.52
2022-09-03T06:59:43.841Z,16.58
2022-09-03T07:04:45.433Z,16.65
2022-09-03T07:09:50.018Z,16.72
2022-09-03T07:14:51.735Z,16.75
2022-09-03T07:19:55.271Z,16.79
2022-09-03T07:24:56.884Z,16.92
2022-09-03T07:29:58.437Z,17.02
2022-09-03T07:35:00.318Z,17.08
2022-09-03T07:40:02.506Z,17.09
2022-09-03T07:45:12.786Z,17.23
2022-09-03T07:50:15.027Z,17.32
2022-09-03T07:55:16.803Z,17.38
2022-09-03T08:00:18.697Z,17.42
2022-09-03T08:05:20.538Z,17.50
2022-09-03T08:10:22.781Z,17.53
2022-09-03T08:15:25.399Z,17.67
2022-09-03T08:20:28.094Z,17.72
2022-09-03T08:25:30.125Z,17.73
2022-09-03T08:30:31.789Z,17.82
2022-09-03T08:35:34.419Z,17.95
2022-09-03T08:40:38.150Z,18.05
2022-09-03T08:45:39.815Z,18.15
2022-09-03T08:50:45.052Z,18.17
2022-09-03T08:55:55.998Z,18.16
2022-09-03T09:01:01.477Z,18.31
2022-09-03T09:06:57.885Z,18.41
2022-09-03T09:12:34.065Z,18.42
2022-09-03T09:17:47.519Z,18.43
2022-09-03T09:23:01.785Z,18.50
2022-09-03T09:28:14.261Z,18.60
2022-09-03T09:33:16.652Z,18.60
2022-09-03T09:38:32.204Z,18.71
2022-09-03T09:43:33.803Z,18.71
2022-09-03T09:48:39.478Z,18.81
2022-09-03T09:53:41.487Z,18.89
2022-09-03T09:58:43.100Z,18.95
2022-09-03T10:03:56.966Z,19.06
2022-09-03T10:09:10.092Z,19.09
2022-09-03T10:14:19.231Z,19.13
2022-09-03T10:19:24.296Z,19.17
2022-09-03T10:24:45.108Z,19.20
2022-09-03T10:29:46.746Z,19.28
2022-09-03T10:35:10.192Z,19.39
2022-09-03T10:40:19.079Z,19.42
2022-09-03T10:45:38.107Z,19.48
2022-09-03T10:51:05.727Z,19.55
2022-09-03T10:57:11.997Z,19.60
2022-09-03T11:02:26.619Z,19.80
2022-09-03T11:07:41.491Z,19.81
2022-09-03T11:12:53.058Z,19.77
2022-09-03T11:17:59.830Z,19.95
2022-09-03T11:23:03.578Z,19.97
2022-09-03T11:28:28.575Z,19.93
2022-09-03T11:33:33.255Z,19.95
2022-09-03T11:38:35.344Z,20.05
2022-09-03T11:43:37.756Z,20.03
2022-09-03T11:48:49.968Z,20.09
2022-09-03T11:53:56.653Z,20.20
2022-09-03T11:59:14.067Z,20.29
2022-09-03T12:04:18.156Z,20.27
2022-09-03T12:09:48.239Z,20.22
2022-09-03T12:15:05.394Z,20.35
2022-09-03T12:20:14.394Z,20.39
2022-09-03T12:25:16.376Z,20.41
2022-09-03T12:30:21.401Z,20.41
2022-09-03T12:46:14.801Z,20.53
2022-09-03T12:56:42.378Z,20.69
2022-09-03T13:01:53.514Z,20.64
2022-09-03T13:07:08.312Z,20.72
2022-09-03T13:12:43.486Z,20.68
2022-09-03T13:17:55.235Z,20.76
2022-09-03T13:23:07.825Z,20.64
2022-09-03T13:28:15.327Z,20.87
2022-09-03T13:33:47.607Z,20.81
2022-09-03T13:38:54.694Z,20.80
2022-09-03T13:44:09.896Z,20.82
2022-09-03T13:49:39.131Z,20.77
2022-09-03T13:54:49.911Z,20.82
2022-09-03T13:59:52.450Z,20.83
2022-09-03T14:05:27.793Z,20.92
2022-09-03T14:10:45.078Z,20.83
2022-09-03T14:15:50.234Z,20.80
2022-09-03T14:20:54.626Z,20.90
2022-09-03T14:25:57.939Z,20.83
2022-09-03T14:31:28.233Z,20.91
2022-09-03T14:36:45.369Z,20.86
2022-09-03T14:42:02.484Z,20.83
2022-09-03T14:47:15.945Z,20.79
2022-09-03T14:52:57.238Z,20.78
2022-09-03T14:58:15.801Z,20.97
2022-09-03T15:03:24.186Z,20.97
2022-09-03T15:09:10.590Z,21.05
2022-09-03T15:14:18.852Z,20.98
2022-09-03T15:19:29.489Z,20.97
2022-09-03T15:24:55.824Z,20.96
2022-09-03T15:30:11.450Z,20.97
2022-09-03T15:35:25.505Z,20.95
2022-09-03T15:40:34.429Z,21.02
2022-09-03T15:45:40.191Z,20.97
2022-09-03T15:51:10.569Z,20.98
2022-09-03T15:56:28.874Z,20.97
2022-09-03T16:01:51.088Z,20.90
2022-09-03T16:06:59.824Z,20.90
2022-09-03T16:12:20.080Z,20.85
2022-09-03T16:17:30.247Z,20.89
2022-09-03T16:23:02.508Z,20.89
2022-09-03T16:28:15.032Z,20.90
2022-09-03T16:33:52.089Z,20.84
2022-09-03T16:39:42.121Z,20.82
2022-09-03T16:45:05.561Z,20.81
2022-09-03T16:50:17.387Z,20.73
2022-09-03T16:55:26.205Z,20.73
2022-09-03T17:00:45.782Z,20.71
2022-09-03T17:06:25.089Z,20.71
2022-09-03T17:11:38.485Z,20.64
2022-09-03T17:16:50.382Z,20.63
2022-09-03T17:22:17.190Z,20.60
2022-09-03T17:27:54.275Z,20.52
2022-09-03T17:33:37.633Z,20.49
2022-09-03T17:39:16.839Z,20.44
2022-09-03T17:44:27.319Z,20.39
2022-09-03T17:49:35.085Z,20.36
2022-09-03T17:54:41.332Z,20.34
2022-09-03T18:00:04.379Z,20.22
2022-09-03T18:05:19.198Z,20.14
2022-09-03T18:10:59.079Z,20.07
2022-09-03T18:16:18.793Z,20.02
2022-09-03T18:21:44.486Z,19.97
2022-09-03T18:27:11.589Z,19.92
2022-09-03T18:32:31.724Z,19.86
2022-09-03T18:37:52.356Z,19.78
2022-09-03T18:43:33.145Z,19.75
2022-09-03T18:49:00.592Z,19.68
2022-09-03T18:54:27.099Z,19.64
2022-09-03T19:00:13.705Z,19.55
2022-09-03T19:05:52.774Z,19.43
2022-09-03T19:11:46.592Z,19.44
2022-09-03T19:17:19.869Z,19.39
2022-09-03T19:22:52.795Z,19.38
2022-09-03T19:28:25.179Z,19.34
2022-09-03T19:34:00.218Z,19.32
2022-09-03T19:39:29.080Z,19.38
2022-09-03T19:45:18.235Z,19.32
2022-09-03T19:50:43.716Z,19.31
2022-09-03T19:56:11.977Z,19.27
2022-09-03T20:01:32.481Z,19.24
2022-09-03T20:06:53.513Z,19.22
2022-09-03T20:11:57.249Z,19.16
2022-09-03T20:17:23.723Z,19.11
2022-09-03T20:23:09.423Z,19.12
2022-09-03T20:28:30.068Z,19.06
2022-09-03T20:33:37.959Z,19.02
2022-09-03T20:39:05.705Z,19.07
2022-09-03T20:44:35.097Z,19.00
2022-09-03T20:49:51.729Z,18.94
2022-09-03T20:55:16.209Z,18.95
2022-09-03T21:00:18.745Z,18.91
2022-09-03T21:05:27.978Z,18.92
2022-09-03T21:10:32.719Z,18.82
2022-09-03T21:16:04.563Z,18.83
2022-09-03T21:21:21.807Z,18.79
2022-09-03T21:26:27.053Z,18.76
2022-09-03T21:31:54.187Z,18.78
2022-09-03T21:36:56.595Z,18.71
2022-09-03T21:42:04.826Z,18.74
2022-09-03T21:47:10.099Z,18.57
2022-09-03T21:52:15.130Z,18.52
2022-09-03T21:57:29.472Z,18.44
2022-09-03T22:02:33.185Z,18.49
2022-09-03T22:07:53.326Z,18.43
2022-09-03T22:13:23.500Z,18.32
2022-09-03T22:18:30.024Z,18.22
2022-09-03T22:23:43.614Z,18.49
2022-09-03T22:28:52.351Z,18.26
2022-09-03T22:34:12.602Z,18.24
2022-09-03T22:39:34.399Z,18.18
2022-09-03T22:45:07.414Z,18.11
2022-09-03T22:50:29.594Z,18.03
2022-09-03T22:55:31.296Z,18.00
2022-09-03T23:00:47.203Z,17.85
2022-09-03T23:05:52.513Z,17.77
2022-09-03T23:11:08.450Z,17.65
2022-09-03T23:16:19.786Z,17.66
2022-09-03T23:21:26.586Z,17.58
2022-09-03T23:26:49.467Z,17.44
2022-09-03T23:31:52.810Z,17.41
2022-09-03T23:42:49.878Z,17.38
2022-09-03T23:48:03.995Z,17.44
2022-09-03T23:53:24.576Z,17.48
2022-09-03T23:58:45.083Z,17.48
